createdAt,value
2024-05-09T00:00:22.495Z,16.000000
2024-05-09T00:05:17.573Z,16.000000
2024-05-09T00:10:25.361Z,15.000000
2024-05-09T00:15:17.395Z,15.000000
2024-05-09T00:20:24.151Z,16.000000
2024-05-09T00:25:17.431Z,16.000000
2024-05-09T00:30:24.414Z,17.000000
2024-05-09T00:35:17.690Z,16.000000
2024-05-09T00:40:26.543Z,15.000000
2024-05-09T00:45:17.591Z,13.000000
2024-05-09T00:50:22.758Z,13.000000
2024-05-09T00:55:17.780Z,12.000000
2024-05-09T01:00:26.521Z,13.000000
2024-05-09T01:05:17.532Z,14.000000
2024-05-09T01:10:24.232Z,13.000000
2024-05-09T01:15:17.690Z,12.000000
2024-05-09T01:20:22.898Z,10.000000
2024-05-09T01:25:17.684Z,12.000000
2024-05-09T01:30:24.276Z,16.000000
2024-05-09T01:35:17.600Z,17.000000
2024-05-09T01:40:22.116Z,15.000000
2024-05-09T01:45:19.646Z,13.000000
2024-05-09T01:50:22.506Z,10.000000
2024-05-09T01:55:17.637Z,8.000000
2024-05-09T02:00:26.240Z,9.000000
2024-05-09T02:05:18.032Z,10.000000
2024-05-09T02:10:25.956Z,10.000000
2024-05-09T02:15:17.582Z,12.000000
2024-05-09T02:20:26.819Z,11.000000
2024-05-09T02:25:17.585Z,11.000000
2024-05-09T02:30:25.858Z,6.000000
2024-05-09T02:35:17.815Z,4.000000
2024-05-09T02:40:25.244Z,5.000000
2024-05-09T02:45:17.642Z,4.000000
2024-05-09T02:50:26.016Z,5.000000
2024-05-09T02:55:18.023Z,5.000000
2024-05-09T03:00:22.832Z,4.000000
2024-05-09T03:05:17.746Z,4.000000
2024-05-09T03:10:22.462Z,4.000000
2024-05-09T03:15:18.098Z,5.000000
2024-05-09T03:20:23.688Z,4.000000
2024-05-09T03:25:18.506Z,8.000000
2024-05-09T03:30:29.277Z,8.000000
2024-05-09T03:35:18.025Z,7.000000
2024-05-09T03:40:23.480Z,9.000000
2024-05-09T03:45:18.852Z,8.000000
2024-05-09T03:50:25.758Z,8.000000
2024-05-09T03:55:17.914Z,9.000000
2024-05-09T04:00:22.591Z,8.000000
2024-05-09T04:05:17.182Z,5.000000
2024-05-09T04:10:23.802Z,4.000000
2024-05-09T04:15:16.889Z,4.000000
2024-05-09T04:20:28.706Z,2.000000
2024-05-09T04:25:17.064Z,0.000000
2024-05-09T04:30:25.552Z,3.000000
2024-05-09T04:35:17.215Z,2.000000
2024-05-09T04:40:27.633Z,2.000000
2024-05-09T04:45:17.066Z,3.000000
2024-05-09T04:50:24.690Z,4.000000
2024-05-09T04:55:17.246Z,4.000000
2024-05-09T05:00:21.982Z,4.000000
2024-05-09T05:05:17.318Z,3.000000
2024-05-09T05:10:25.124Z,3.000000
2024-05-09T05:15:17.286Z,2.000000
2024-05-09T05:20:24.522Z,5.000000
2024-05-09T05:25:17.106Z,5.000000
2024-05-09T05:30:21.513Z,5.000000
2024-05-09T05:35:17.153Z,3.000000
2024-05-09T05:40:27.602Z,4.000000
2024-05-09T05:45:18.641Z,3.000000
2024-05-09T05:50:24.712Z,2.000000
2024-05-09T05:55:17.710Z,0.000000
2024-05-09T06:00:26.086Z,0.000000
2024-05-09T06:05:17.309Z,0.000000
2024-05-09T06:10:21.711Z,0.000000
2024-05-09T06:15:17.222Z,0.000000
2024-05-09T06:20:23.875Z,3.000000
2024-05-09T06:25:17.353Z,6.000000
2024-05-09T06:30:25.306Z,6.000000
2024-05-09T06:35:17.212Z,7.000000
2024-05-09T06:40:21.250Z,9.000000
2024-05-09T06:45:17.362Z,8.000000
2024-05-09T06:50:23.754Z,8.000000
2024-05-09T06:55:17.794Z,7.000000
2024-05-09T07:00:23.112Z,5.000000
2024-05-09T07:05:17.453Z,5.000000
2024-05-09T07:10:25.133Z,5.000000
2024-05-09T07:15:17.421Z,7.000000
2024-05-09T07:20:23.654Z,7.000000
2024-05-09T07:25:17.411Z,8.000000
2024-05-09T07:30:23.529Z,8.000000
2024-05-09T07:35:17.586Z,8.000000
2024-05-09T07:40:28.995Z,9.000000
2024-05-09T07:45:40.458Z,10.000000
2024-05-09T07:52:23.921Z,9.000000
2024-05-09T07:55:17.633Z,9.000000
2024-05-09T08:00:23.606Z,9.000000
2024-05-09T08:05:17.708Z,8.000000
2024-05-09T08:10:22.155Z,9.000000
2024-05-09T08:15:17.549Z,9.000000
2024-05-09T08:20:26.635Z,7.000000
2024-05-09T08:25:17.929Z,8.000000
2024-05-09T08:30:24.736Z,8.000000
2024-05-09T08:35:17.569Z,8.000000
2024-05-09T08:40:24.175Z,7.000000
2024-05-09T08:45:17.915Z,6.000000
2024-05-09T08:50:28.410Z,6.000000
2024-05-09T08:55:17.686Z,6.000000
2024-05-09T09:00:33.714Z,7.000000
2024-05-09T09:05:17.839Z,7.000000
2024-05-09T09:10:25.113Z,8.000000
2024-05-09T09:15:17.765Z,7.000000
2024-05-09T09:20:23.287Z,8.000000
2024-05-09T09:25:17.719Z,8.000000
2024-05-09T09:30:31.418Z,9.000000
2024-05-09T09:35:17.555Z,9.000000
2024-05-09T09:40:18.486Z,10.000000
2024-05-09T09:45:19.071Z,9.000000
2024-05-09T09:50:24.047Z,9.000000
2024-05-09T09:55:18.182Z,9.000000
2024-05-09T10:00:24.451Z,9.000000
2024-05-09T10:05:17.789Z,9.000000
2024-05-09T10:10:23.142Z,8.000000
2024-05-09T10:15:17.786Z,8.000000
2024-05-09T10:20:21.795Z,9.000000
2024-05-09T10:25:18.003Z,9.000000
2024-05-09T10:30:25.739Z,9.000000
2024-05-09T10:35:18.053Z,7.000000
2024-05-09T10:40:25.812Z,9.000000
2024-05-09T10:45:17.984Z,9.000000
2024-05-09T10:50:25.327Z,10.000000
2024-05-09T10:55:18.530Z,10.000000
2024-05-09T11:00:27.298Z,11.000000
2024-05-09T11:05:18.423Z,10.000000
2024-05-09T11:10:27.165Z,12.000000
2024-05-09T11:15:18.195Z,13.000000
2024-05-09T11:20:26.430Z,13.000000
2024-05-09T11:25:17.914Z,14.000000
2024-05-09T11:30:26.645Z,14.000000
2024-05-09T11:35:18.055Z,13.000000
2024-05-09T11:40:25.240Z,13.000000
2024-05-09T11:45:19.102Z,16.000000
2024-05-09T11:50:26.836Z,16.000000
2024-05-09T11:55:18.203Z,15.000000
2024-05-09T12:00:25.258Z,14.000000
2024-05-09T12:05:18.392Z,16.000000
2024-05-09T12:10:22.291Z,15.000000
2024-05-09T12:15:18.260Z,16.000000
2024-05-09T12:20:25.801Z,17.000000
2024-05-09T12:25:18.319Z,16.000000
2024-05-09T12:30:28.821Z,16.000000
2024-05-09T12:35:18.092Z,18.000000
2024-05-09T12:40:26.572Z,17.000000
2024-05-09T12:45:18.151Z,17.000000
2024-05-09T12:50:25.232Z,16.000000
2024-05-09T12:55:18.374Z,16.000000
2024-05-09T13:00:24.007Z,15.000000
2024-05-09T13:05:18.198Z,15.000000
2024-05-09T13:10:28.637Z,15.000000
2024-05-09T13:15:18.274Z,14.000000
2024-05-09T13:20:26.131Z,13.000000
2024-05-09T13:25:18.774Z,13.000000
2024-05-09T13:30:26.315Z,12.000000
2024-05-09T13:35:18.396Z,14.000000
2024-05-09T13:40:27.201Z,13.000000
2024-05-09T13:45:19.649Z,12.000000
2024-05-09T13:50:27.957Z,10.000000
2024-05-09T13:55:18.395Z,9.000000
2024-05-09T14:00:31.603Z,7.000000
2024-05-09T14:05:18.945Z,6.000000
2024-05-09T14:10:23.405Z,6.000000
2024-05-09T14:15:18.373Z,7.000000
2024-05-09T14:20:28.277Z,6.000000
2024-05-09T14:25:18.817Z,8.000000
2024-05-09T14:30:26.175Z,7.000000
2024-05-09T14:35:18.304Z,7.000000
2024-05-09T14:40:29.786Z,8.000000
2024-05-09T14:45:18.279Z,7.000000
2024-05-09T14:50:27.388Z,6.000000
2024-05-09T14:55:18.707Z,5.000000
2024-05-09T15:00:26.108Z,4.000000
2024-05-09T15:05:18.645Z,4.000000
2024-05-09T15:10:26.602Z,5.000000
2024-05-09T15:15:18.468Z,6.000000
2024-05-09T15:20:26.818Z,8.000000
2024-05-09T15:25:19.208Z,7.000000
2024-05-09T15:30:28.100Z,7.000000
2024-05-09T15:35:18.446Z,4.000000
2024-05-09T15:40:26.561Z,8.000000
2024-05-09T15:45:19.755Z,8.000000
2024-05-09T15:50:28.260Z,6.000000
2024-05-09T15:55:18.830Z,5.000000
2024-05-09T16:00:28.323Z,6.000000
2024-05-09T16:05:19.119Z,5.000000
2024-05-09T16:10:23.190Z,6.000000
2024-05-09T16:15:18.548Z,7.000000
2024-05-09T16:20:29.590Z,9.000000
2024-05-09T16:25:19.045Z,8.000000
2024-05-09T16:30:27.788Z,7.000000
2024-05-09T16:35:16.781Z,10.000000
2024-05-09T16:40:25.433Z,9.000000
2024-05-09T16:45:16.521Z,8.000000
2024-05-09T16:50:22.599Z,9.000000
2024-05-09T16:55:17.158Z,9.000000
2024-05-09T17:00:25.270Z,10.000000
2024-05-09T17:05:16.950Z,11.000000
2024-05-09T17:10:26.427Z,9.000000
2024-05-09T17:15:16.972Z,8.000000
2024-05-09T17:20:28.381Z,10.000000
2024-05-09T17:25:16.942Z,10.000000
2024-05-09T17:30:28.090Z,11.000000
2024-05-09T17:35:16.673Z,12.000000
2024-05-09T17:40:20.678Z,11.000000
2024-05-09T17:45:18.704Z,11.000000
2024-05-09T17:50:23.890Z,10.000000
2024-05-09T17:55:17.187Z,11.000000
2024-05-09T18:00:24.706Z,11.000000
2024-05-09T18:05:17.132Z,12.000000
2024-05-09T18:10:22.658Z,13.000000
2024-05-09T18:15:16.831Z,12.000000
2024-05-09T18:20:24.234Z,14.000000
2024-05-09T18:25:17.285Z,13.000000
2024-05-09T18:30:24.035Z,12.000000
2024-05-09T18:35:17.022Z,13.000000
2024-05-09T18:40:24.792Z,14.000000
2024-05-09T18:45:16.862Z,13.000000
2024-05-09T18:50:24.732Z,13.000000
2024-05-09T18:55:17.344Z,13.000000
2024-05-09T19:00:30.734Z,15.000000
2024-05-09T19:05:16.988Z,16.000000
2024-05-09T19:10:22.586Z,15.000000
2024-05-09T19:15:17.177Z,14.000000
2024-05-09T19:20:25.039Z,14.000000
2024-05-09T19:25:17.175Z,14.000000
2024-05-09T19:30:25.438Z,14.000000
2024-05-09T19:35:17.051Z,15.000000
2024-05-09T19:40:24.734Z,15.000000
2024-05-09T19:45:18.435Z,16.000000
2024-05-09T19:50:26.045Z,15.000000
2024-05-09T19:55:17.503Z,15.000000
2024-05-09T20:00:22.276Z,13.000000
2024-05-09T20:05:17.423Z,12.000000
2024-05-09T20:10:23.694Z,12.000000
2024-05-09T20:15:17.106Z,13.000000
2024-05-09T20:20:28.017Z,13.000000
2024-05-09T20:25:17.495Z,13.000000
2024-05-09T20:30:25.089Z,12.000000
2024-05-09T20:35:17.054Z,12.000000
2024-05-09T20:40:25.522Z,13.000000
2024-05-09T20:45:17.286Z,12.000000
2024-05-09T20:50:27.427Z,12.000000
2024-05-09T20:55:17.476Z,13.000000
2024-05-09T21:00:19.370Z,12.000000
2024-05-09T21:05:17.464Z,13.000000
2024-05-09T21:10:22.420Z,13.000000
2024-05-09T21:15:17.273Z,13.000000
2024-05-09T21:20:20.752Z,13.000000
2024-05-09T21:25:17.331Z,15.000000
2024-05-09T21:30:26.766Z,14.000000
2024-05-09T21:35:17.576Z,13.000000
2024-05-09T21:40:26.927Z,13.000000
2024-05-09T21:45:18.938Z,13.000000
2024-05-09T21:50:22.923Z,15.000000
2024-05-09T21:55:17.464Z,13.000000
2024-05-09T22:00:28.371Z,14.000000
2024-05-09T22:05:17.728Z,15.000000
2024-05-09T22:10:25.666Z,15.000000
2024-05-09T22:15:17.335Z,17.000000
2024-05-09T22:20:25.101Z,18.000000
2024-05-09T22:25:17.480Z,16.000000
2024-05-09T22:30:23.843Z,16.000000
2024-05-09T22:35:17.523Z,16.000000
2024-05-09T22:40:24.163Z,17.000000
2024-05-09T22:45:17.594Z,16.000000
2024-05-09T22:50:26.301Z,16.000000
2024-05-09T22:55:17.546Z,17.000000
2024-05-09T23:00:21.689Z,18.000000
2024-05-09T23:05:17.957Z,16.000000
2024-05-09T23:10:25.069Z,16.000000
2024-05-09T23:15:17.582Z,14.000000
2024-05-09T23:20:25.924Z,13.000000
2024-05-09T23:25:18.662Z,11.000000
2024-05-09T23:30:28.391Z,13.000000
2024-05-09T23:35:17.669Z,13.000000
2024-05-09T23:40:19.140Z,13.000000
2024-05-09T23:45:18.775Z,12.000000
2024-05-09T23:50:23.960Z,12.000000
2024-05-09T23:55:18.270Z,12.000000
